Time;durP1;ratioP1;P1;durP2;ratioP2;P2;SDS_P1;SDS_P2;PMS_P1;PMS_P2;Temp;Humidity;BMP_temperature;BMP_pressure;BME280_temperature;BME280_humidity;BME280_pressure;Samples;Min_cycle;Max_cycle;Signal;HPM_P1;HPM_P2
2021/04/09 00:00:14;;;;;;;9.70;7.40;;;;;;;2.31;58.03;101184.50;5072041;28;20493;-66
2021/04/09 00:02:39;;;;;;;11.60;8.05;;;;;;;2.37;58.32;101158.63;5070443;28;20035;-66
2021/04/09 00:05:07;;;;;;;8.85;7.82;;;;;;;2.78;57.28;101175.53;5070908;28;20078;-66
2021/04/09 00:07:32;;;;;;;9.77;8.60;;;;;;;3.07;55.34;101167.75;5054413;28;20392;-66
2021/04/09 00:09:58;;;;;;;11.15;8.35;;;;;;;3.54;54.63;101169.06;5071406;28;20025;-66
2021/04/09 00:12:23;;;;;;;9.82;8.40;;;;;;;2.57;57.26;101166.22;5070425;28;20024;-66
2021/04/09 00:14:48;;;;;;;8.57;7.68;;;;;;;1.93;58.67;101169.31;5072079;28;20364;-66
2021/04/09 00:17:13;;;;;;;8.90;7.53;;;;;;;2.37;58.35;101174.25;5071282;28;20039;-67
2021/04/09 00:19:39;;;;;;;10.90;7.53;;;;;;;1.71;60.10;101171.19;5071912;28;20495;-66
2021/04/09 00:22:04;;;;;;;9.63;8.63;;;;;;;1.56;61.10;101168.91;5069825;28;20043;-66
2021/04/09 00:24:29;;;;;;;9.50;7.18;;;;;;;1.92;60.73;101158.06;5072240;28;20039;-66
2021/04/09 00:26:58;;;;;;;13.73;7.95;;;;;;;2.46;58.34;101165.00;5071374;28;20032;-66
2021/04/09 00:29:23;;;;;;;9.27;7.40;;;;;;;2.09;58.86;101154.22;5071678;28;20040;-66
2021/04/09 00:31:48;;;;;;;10.05;8.20;;;;;;;2.12;60.25;101156.94;5069756;28;20388;-66
2021/04/09 00:34:14;;;;;;;13.23;8.45;;;;;;;2.09;58.79;101147.31;5070187;28;20027;-66
2021/04/09 00:36:39;;;;;;;8.82;7.90;;;;;;;2.17;58.79;101153.66;5070763;28;20036;-67
2021/04/09 00:39:06;;;;;;;11.60;8.50;;;;;;;2.62;57.57;101143.81;5070290;28;20028;-66
2021/04/09 00:41:32;;;;;;;9.30;7.78;;;;;;;3.44;54.83;101144.44;5070191;28;20497;-67
2021/04/09 00:43:58;;;;;;;11.50;8.40;;;;;;;2.43;57.49;101148.44;5071143;28;20040;-66
2021/04/09 00:46:23;;;;;;;11.60;7.75;;;;;;;2.95;56.75;101144.78;5070248;28;20399;-66
2021/04/09 00:48:49;;;;;;;13.60;8.43;;;;;;;2.93;56.40;101136.94;5070251;28;20392;-66
2021/04/09 00:51:16;;;;;;;9.73;7.85;;;;;;;3.74;53.78;101140.03;5069854;28;20082;-67
2021/04/09 00:53:42;;;;;;;10.10;8.25;;;;;;;2.75;55.79;101137.25;5069852;28;20024;-67
2021/04/09 00:56:08;;;;;;;9.52;8.13;;;;;;;3.17;55.03;101127.19;5069827;28;20036;-67
2021/04/09 00:58:34;;;;;;;8.73;7.82;;;;;;;3.35;55.33;101119.00;5069787;28;20427;-67
2021/04/09 01:00:59;;;;;;;9.20;7.35;;;;;;;3.04;55.68;101120.72;5069911;28;20031;-67
2021/04/09 01:03:25;;;;;;;12.75;8.65;;;;;;;2.79;55.72;101120.00;5069747;28;20020;-65
2021/04/09 01:05:52;;;;;;;9.90;8.20;;;;;;;2.10;58.15;101125.66;5070185;28;20021;-66
2021/04/09 01:08:17;;;;;;;9.57;8.57;;;;;;;1.60;59.80;101108.38;5069845;28;20029;-66
2021/04/09 01:10:42;;;;;;;9.45;8.13;;;;;;;1.58;60.66;101106.56;5070659;28;20395;-66
2021/04/09 01:13:08;;;;;;;10.10;7.68;;;;;;;1.32;61.87;101119.53;5071033;28;20368;-66
2021/04/09 01:15:33;;;;;;;9.40;8.43;;;;;;;1.98;60.90;101107.94;5070970;28;20399;-66
2021/04/09 01:18:13;;;;;;;10.07;7.70;;;;;;;2.38;57.76;101108.34;5070251;28;20360;-66
2021/04/09 01:21:04;;;;;;;11.98;9.13;;;;;;;2.23;58.46;101106.13;5070868;28;20029;-66
2021/04/09 01:23:44;;;;;;;11.43;8.27;;;;;;;2.08;58.38;101098.72;5071009;28;20029;-66
2021/04/09 01:26:28;;;;;;;10.02;7.90;;;;;;;1.95;59.04;101099.13;5068302;28;20028;-66
2021/04/09 01:29:00;;;;;;;14.15;9.13;;;;;;;2.43;58.93;101103.28;5070808;28;20414;-66
2021/04/09 01:31:42;;;;;;;13.07;8.52;;;;;;;2.30;58.08;101097.69;5052307;28;20031;-67
2021/04/09 01:34:07;;;;;;;;;;;;;;;2.11;58.40;101093.63;5070480;28;20029;-66
2021/04/09 01:36:47;;;;;;;11.52;8.20;;;;;;;2.89;55.84;101093.38;5069727;28;19912;-66
2021/04/09 01:39:19;;;;;;;13.82;8.52;;;;;;;2.89;55.13;101084.66;5069740;28;20122;-66
2021/04/09 01:41:44;;;;;;;9.85;8.13;;;;;;;2.59;56.34;101086.41;5069366;28;20075;-66
2021/04/09 01:44:11;;;;;;;10.07;8.07;;;;;;;2.72;56.99;101079.84;5069571;28;20028;-66
2021/04/09 01:46:40;;;;;;;10.93;7.95;;;;;;;2.63;56.45;101080.44;5071272;28;20103;-66
2021/04/09 01:49:06;;;;;;;10.82;9.30;;;;;;;3.09;55.52;101061.78;5073697;28;20033;-66
2021/04/09 01:51:32;;;;;;;9.52;7.28;;;;;;;2.18;58.19;101066.06;5072736;28;20032;-66
2021/04/09 01:53:58;;;;;;;12.63;8.02;;;;;;;2.65;56.69;101060.56;5072600;28;20032;-66
2021/04/09 01:56:25;;;;;;;9.90;8.63;;;;;;;3.11;54.99;101054.00;5072610;28;20020;-66
2021/04/09 01:58:50;;;;;;;12.15;10.52;;;;;;;2.97;55.11;101057.13;5073299;28;20056;-66
2021/04/09 02:01:17;;;;;;;9.77;8.75;;;;;;;2.94;54.85;101042.28;5072740;28;20079;-66
2021/04/09 02:03:44;;;;;;;10.10;7.85;;;;;;;2.41;57.21;101040.72;5053110;28;20029;-66
2021/04/09 02:06:12;;;;;;;9.15;7.28;;;;;;;2.75;55.46;101038.28;5056325;28;20284;-66
2021/04/09 02:08:37;;;;;;;9.60;8.52;;;;;;;3.40;53.89;101035.69;5071680;28;20027;-67
2021/04/09 02:11:05;;;;;;;12.63;8.15;;;;;;;3.39;54.00;101032.19;5072748;28;20025;-66
2021/04/09 02:13:32;;;;;;;9.77;8.40;;;;;;;3.40;53.91;101028.72;5073744;28;20037;-66
2021/04/09 02:15:58;;;;;;;8.85;7.95;;;;;;;3.58;53.49;101030.06;5074302;28;20047;-66
2021/04/09 02:18:29;;;;;;;9.70;8.00;;;;;;;2.99;53.93;101031.09;5071200;28;20107;-66
2021/04/09 02:20:59;;;;;;;10.35;8.65;;;;;;;2.59;56.01;101033.44;5073750;28;20025;-66
2021/04/09 02:23:24;;;;;;;8.88;8.02;;;;;;;2.73;56.69;101020.84;5073644;28;20032;-66
2021/04/09 02:25:50;;;;;;;10.30;9.10;;;;;;;3.25;55.88;101015.28;5073642;28;20024;-66
2021/04/09 02:28:16;;;;;;;10.05;8.75;;;;;;;3.56;54.86;101010.84;5052538;28;20036;-66
2021/04/09 02:30:41;;;;;;;12.20;8.68;;;;;;;3.51;54.65;101012.47;5072985;28;20112;-66
2021/04/09 02:33:07;;;;;;;8.95;8.05;;;;;;;3.68;54.79;101011.19;5072854;28;20115;-66
2021/04/09 02:35:32;;;;;;;10.07;9.00;;;;;;;3.65;54.36;101010.22;5073397;28;20028;-66
2021/04/09 02:37:58;;;;;;;11.57;8.20;;;;;;;3.58;54.41;100997.03;5073058;28;20490;-66
2021/04/09 02:40:32;;;;;;;9.95;8.95;;;;;;;3.29;54.71;100996.28;5072267;28;20123;-66
2021/04/09 02:42:57;;;;;;;9.13;8.23;;;;;;;3.42;54.74;101002.69;5072349;28;20021;-66
2021/04/09 02:45:24;;;;;;;11.55;8.90;;;;;;;3.59;53.83;101001.41;5072461;28;20085;-66
2021/04/09 02:47:51;;;;;;;15.35;8.88;;;;;;;2.98;54.02;100990.25;5071695;28;20038;-66
2021/04/09 02:50:42;;;;;;;13.65;8.52;;;;;;;3.38;55.25;100988.69;5073630;28;20468;-66
2021/04/09 02:53:11;;;;;;;9.97;8.47;;;;;;;3.56;54.77;100990.00;5052451;28;20236;-66
2021/04/09 02:55:40;;;;;;;12.40;8.38;;;;;;;3.75;53.89;100986.13;5072186;28;20374;-67
2021/04/09 02:58:07;;;;;;;10.32;8.32;;;;;;;3.52;54.83;100981.22;5071461;28;20119;-66
2021/04/09 03:00:36;;;;;;;11.60;9.20;;;;;;;3.57;55.02;100990.03;5072049;28;20028;-66
2021/04/09 03:03:05;;;;;;;13.30;9.48;;;;;;;3.44;54.57;100981.00;5073033;28;20025;-66
2021/04/09 03:05:30;;;;;;;12.07;9.40;;;;;;;3.37;54.76;100973.88;5073036;28;20028;-66
2021/04/09 03:07:58;;;;;;;9.15;8.18;;;;;;;3.19;55.68;100969.97;5072778;28;20078;-67
2021/04/09 03:10:23;;;;;;;10.55;9.30;;;;;;;3.08;55.54;100967.06;5072103;28;20029;-66
2021/04/09 03:12:48;;;;;;;11.90;9.63;;;;;;;3.24;55.48;100967.50;5072606;28;20548;-66
2021/04/09 03:15:17;;;;;;;11.35;8.45;;;;;;;3.26;55.19;100954.47;5054602;28;20024;-67
2021/04/09 03:17:55;;;;;;;15.18;9.82;;;;;;;3.47;54.74;100962.84;5071579;28;20433;-66
2021/04/09 03:20:20;;;;;;;13.80;9.60;;;;;;;3.62;54.72;100955.34;5071544;28;20453;-66
2021/04/09 03:22:46;;;;;;;13.05;9.77;;;;;;;3.63;54.33;100959.75;5071108;28;20538;-66
2021/04/09 03:25:12;;;;;;;13.88;10.18;;;;;;;3.46;54.65;100953.25;5072625;28;20024;-66
2021/04/09 03:27:37;;;;;;;11.95;9.70;;;;;;;3.35;54.38;100954.72;5072631;28;20047;-66
2021/04/09 03:30:03;;;;;;;12.05;10.18;;;;;;;3.62;54.27;100956.25;5072587;28;20024;-66
2021/04/09 03:32:28;;;;;;;11.23;10.07;;;;;;;3.17;54.98;100948.19;5072367;28;20037;-66
2021/04/09 03:34:53;;;;;;;11.02;9.27;;;;;;;3.53;54.14;100949.06;5072119;28;20028;-66
2021/04/09 03:37:19;;;;;;;11.02;9.82;;;;;;;3.74;54.08;100950.44;5072479;28;20025;-67
2021/04/09 03:39:46;;;;;;;9.27;8.35;;;;;;;2.64;55.71;100938.09;5072171;28;20499;-66
2021/04/09 03:42:11;;;;;;;10.63;9.02;;;;;;;2.91;56.57;100943.19;5071535;28;20032;-66
2021/04/09 03:44:36;;;;;;;11.23;9.48;;;;;;;3.46;54.88;100945.44;5071912;28;20028;-66
2021/04/09 03:47:02;;;;;;;10.02;8.98;;;;;;;3.07;55.75;100938.38;5072316;28;20040;-66
2021/04/09 03:49:27;;;;;;;11.60;10.40;;;;;;;3.15;55.10;100936.84;5070486;28;20357;-67
2021/04/09 03:51:52;;;;;;;10.23;9.20;;;;;;;3.25;53.88;100934.47;5071895;28;20028;-66
2021/04/09 03:54:18;;;;;;;10.55;8.95;;;;;;;2.73;56.06;100937.47;5072368;28;20021;-65
2021/04/09 03:56:43;;;;;;;9.48;8.23;;;;;;;2.88;55.65;100932.69;5072608;28;20048;-66
2021/04/09 03:59:08;;;;;;;10.43;9.40;;;;;;;3.19;54.55;100935.19;5070929;28;20028;-65
2021/04/09 04:01:34;;;;;;;11.20;10.05;;;;;;;3.42;54.34;100937.50;5070982;28;20391;-66
2021/04/09 04:03:59;;;;;;;10.07;8.82;;;;;;;1.99;58.82;100929.28;5070112;28;20020;-66
2021/04/09 04:06:24;;;;;;;12.65;10.38;;;;;;;2.81;56.39;100928.16;5071038;28;20028;-67
2021/04/09 04:08:50;;;;;;;14.52;10.40;;;;;;;2.75;56.72;100925.38;5070403;28;20028;-66
2021/04/09 04:11:15;;;;;;;10.85;9.57;;;;;;;3.19;55.08;100928.25;5070768;28;20028;-66
2021/04/09 04:13:41;;;;;;;12.35;10.15;;;;;;;2.93;54.52;100925.84;5070080;28;20020;-67
2021/04/09 04:16:07;;;;;;;10.95;9.05;;;;;;;2.74;55.99;100924.50;5070955;28;20089;-67
2021/04/09 04:18:32;;;;;;;12.25;10.25;;;;;;;3.12;54.76;100918.53;5070522;28;20024;-66
2021/04/09 04:20:57;;;;;;;10.52;9.02;;;;;;;3.17;54.44;100918.66;5070634;28;20035;-65
2021/04/09 04:23:23;;;;;;;12.40;9.65;;;;;;;2.27;57.21;100917.13;5070084;28;20395;-67
2021/04/09 04:25:48;;;;;;;12.30;8.82;;;;;;;2.79;54.79;100912.47;5070760;28;20020;-67
2021/04/09 04:28:14;;;;;;;11.77;10.43;;;;;;;2.92;56.15;100912.78;5069743;28;20071;-66
2021/04/09 04:30:39;;;;;;;15.00;10.45;;;;;;;2.85;56.79;100919.56;5069948;28;20039;-66
2021/04/09 04:33:05;;;;;;;13.63;9.65;;;;;;;3.17;55.31;100908.22;5071440;28;20384;-66
2021/04/09 04:35:30;;;;;;;15.93;11.48;;;;;;;3.27;55.67;100911.94;5071175;28;20036;-66
2021/04/09 04:37:58;;;;;;;12.45;11.25;;;;;;;3.84;54.07;100910.66;5070307;28;20025;-66
2021/04/09 04:40:24;;;;;;;12.35;10.98;;;;;;;3.98;54.03;100908.34;5069721;28;20118;-66
2021/04/09 04:42:49;;;;;;;16.58;11.68;;;;;;;4.09;52.66;100894.66;5070349;28;20468;-66
2021/04/09 04:45:17;;;;;;;12.80;9.80;;;;;;;3.55;55.26;100899.56;5070291;28;20029;-67
2021/04/09 04:47:42;;;;;;;12.82;10.77;;;;;;;3.78;55.26;100896.59;5070418;28;20111;-66
2021/04/09 04:50:08;;;;;;;13.32;10.88;;;;;;;4.09;54.19;100898.16;5071665;28;20563;-66
2021/04/09 04:52:33;;;;;;;14.63;10.40;;;;;;;3.96;54.00;100903.94;5071395;28;20039;-67
2021/04/09 04:54:58;;;;;;;14.75;10.75;;;;;;;4.49;52.97;100898.09;5070804;28;20063;-66
2021/04/09 04:57:23;;;;;;;13.65;10.55;;;;;;;4.13;53.88;100899.09;5068546;28;20028;-67
2021/04/09 04:59:49;;;;;;;19.33;11.85;;;;;;;4.91;52.43;100903.22;5069627;28;20024;-67
2021/04/09 05:02:15;;;;;;;12.57;10.82;;;;;;;5.16;51.46;100897.53;5068486;28;20098;-67
2021/04/09 05:04:40;;;;;;;14.70;11.73;;;;;;;5.35;50.98;100894.38;5071328;28;20033;-66
2021/04/09 05:07:06;;;;;;;14.00;11.15;;;;;;;5.22;52.42;100898.50;5071614;28;20035;-67
2021/04/09 05:09:31;;;;;;;17.00;13.48;;;;;;;5.39;50.12;100895.28;5069749;28;20032;-67
2021/04/09 05:11:56;;;;;;;15.23;11.73;;;;;;;5.39;51.20;100895.28;5067404;28;20030;-67
2021/04/09 05:14:22;;;;;;;15.65;11.75;;;;;;;6.07;50.40;100882.31;5058366;28;20382;-66
2021/04/09 05:16:47;;;;;;;21.63;19.25;;;;;;;6.12;48.29;100885.88;5061000;28;20036;-66
2021/04/09 05:19:12;;;;;;;30.77;22.73;;;;;;;6.41;48.46;100881.88;5063721;28;20520;-66
2021/04/09 05:21:38;;;;;;;15.68;13.60;;;;;;;6.36;48.27;100889.66;5063152;28;20036;-67
2021/04/09 05:24:03;;;;;;;14.57;13.13;;;;;;;6.34;48.33;100890.50;5072586;28;20036;-67
2021/04/09 05:26:29;;;;;;;12.95;11.45;;;;;;;6.60;48.90;100887.31;5072597;28;20122;-66
2021/04/09 05:28:54;;;;;;;12.30;10.68;;;;;;;6.58;48.76;100889.03;5061582;28;20075;-66
2021/04/09 05:31:19;;;;;;;14.38;12.38;;;;;;;6.23;48.26;100878.16;5073731;28;20035;-66
2021/04/09 05:33:45;;;;;;;14.32;11.13;;;;;;;6.49;47.15;100874.06;5070792;28;20046;-67
2021/04/09 05:36:10;;;;;;;14.57;11.75;;;;;;;6.32;48.09;100872.16;5077868;28;20111;-67
2021/04/09 05:38:35;;;;;;;12.38;11.02;;;;;;;6.47;48.26;100871.44;5070696;28;20062;-66
2021/04/09 05:41:01;;;;;;;13.65;10.63;;;;;;;6.12;48.67;100862.31;5078570;28;20067;-67
2021/04/09 05:43:26;;;;;;;16.20;12.02;;;;;;;6.63;48.11;100861.13;5074228;28;20032;-67
2021/04/09 05:45:52;;;;;;;14.18;11.00;;;;;;;6.75;47.25;100866.50;5071605;28;20479;-67
2021/04/09 05:48:18;;;;;;;15.10;11.85;;;;;;;7.04;46.99;100867.63;5070217;28;20016;-67
2021/04/09 05:50:43;;;;;;;12.25;8.90;;;;;;;7.09;46.72;100859.78;5065265;28;20487;-67
2021/04/09 05:53:08;;;;;;;11.48;10.25;;;;;;;7.04;46.15;100862.38;5051105;28;20028;-67
2021/04/09 05:55:34;;;;;;;10.88;9.77;;;;;;;6.19;47.85;100855.41;5089139;28;20038;-67
2021/04/09 05:57:59;;;;;;;14.80;10.98;;;;;;;7.20;46.28;100858.13;5072232;28;20127;-67
2021/04/09 06:00:25;;;;;;;14.65;10.38;;;;;;;7.92;44.53;100848.06;5061811;28;20572;-67
2021/04/09 06:02:52;;;;;;;16.27;10.80;;;;;;;8.57;44.29;100848.31;5081129;28;20129;-67
2021/04/09 06:05:18;;;;;;;11.82;10.65;;;;;;;9.46;41.53;100842.19;5054199;28;20020;-67
2021/04/09 06:07:43;;;;;;;11.20;10.00;;;;;;;11.64;37.72;100853.22;5066911;28;20033;-67
2021/04/09 06:10:09;;;;;;;10.70;9.35;;;;;;;12.25;36.04;100847.25;5063452;28;20376;-67
2021/04/09 06:12:39;;;;;;;11.98;9.13;;;;;;;14.08;33.09;100839.78;5053096;28;20032;-67
2021/04/09 06:15:10;;;;;;;11.15;9.27;;;;;;;12.91;34.12;100842.75;5054237;28;20578;-67
2021/04/09 06:17:36;;;;;;;10.35;8.60;;;;;;;12.21;36.30;100842.91;5073304;28;20021;-67
2021/04/09 06:20:03;;;;;;;11.07;8.77;;;;;;;11.33;37.96;100840.34;5069984;28;20381;-67
2021/04/09 06:22:28;;;;;;;10.43;8.98;;;;;;;10.27;40.50;100849.81;5083441;28;20123;-67
2021/04/09 06:24:54;;;;;;;11.07;9.95;;;;;;;9.68;41.59;100845.69;5077403;28;20603;-67
2021/04/09 06:27:19;;;;;;;11.90;8.63;;;;;;;9.22;42.46;100847.50;5069784;28;20035;-67
2021/04/09 06:29:45;;;;;;;10.63;9.10;;;;;;;8.89;42.91;100848.38;5078889;28;20024;-67
2021/04/09 06:32:10;;;;;;;10.43;8.57;;;;;;;8.62;43.18;100834.31;5068798;28;20463;-67
2021/04/09 06:34:35;;;;;;;11.18;8.65;;;;;;;9.19;43.06;100830.81;5085102;28;20024;-67
2021/04/09 06:37:01;;;;;;;12.55;9.00;;;;;;;9.30;42.43;100834.31;5061508;28;20025;-67
2021/04/09 06:39:26;;;;;;;13.05;8.85;;;;;;;9.75;42.10;100830.72;5083266;28;20024;-67
2021/04/09 06:41:52;;;;;;;13.43;9.43;;;;;;;9.83;41.41;100828.06;5088131;28;20061;-67
2021/04/09 06:44:18;;;;;;;9.90;8.25;;;;;;;10.61;39.25;100833.00;5081676;28;20025;-67
2021/04/09 06:46:44;;;;;;;9.93;8.93;;;;;;;10.60;39.28;100826.81;5075807;28;20032;-67
2021/04/09 06:49:09;;;;;;;9.50;8.50;;;;;;;10.23;40.46;100822.63;5073461;28;20035;-67
2021/04/09 06:51:35;;;;;;;14.07;9.00;;;;;;;9.31;41.66;100820.28;5089026;28;20039;-67
2021/04/09 06:54:01;;;;;;;9.80;8.70;;;;;;;9.83;42.24;100823.66;5084544;28;20040;-67
2021/04/09 06:56:28;;;;;;;10.63;9.15;;;;;;;10.14;41.29;100823.53;5070451;28;20032;-67
2021/04/09 06:58:54;;;;;;;10.30;9.27;;;;;;;10.99;40.10;100817.75;5062654;28;20635;-67
2021/04/09 07:01:21;;;;;;;11.07;8.85;;;;;;;10.79;39.93;100826.69;5075352;28;20558;-68
2021/04/09 07:03:46;;;;;;;12.10;8.65;;;;;;;11.02;39.35;100818.59;5068378;28;20024;-68
2021/04/09 07:06:12;;;;;;;10.85;9.15;;;;;;;11.04;38.71;100806.25;5068788;28;20017;-67
2021/04/09 07:08:42;;;;;;;14.57;9.50;;;;;;;11.68;38.81;100807.38;5068736;28;20408;-67
2021/04/09 07:11:07;;;;;;;11.48;8.40;;;;;;;12.45;36.76;100804.66;5051284;28;20024;-67
2021/04/09 07:13:33;;;;;;;22.42;14.77;;;;;;;12.36;37.03;100800.38;5074245;28;20040;-67
2021/04/09 07:16:09;;;;;;;20.42;14.35;;;;;;;12.11;37.20;100800.72;5069064;28;20028;-66
2021/04/09 07:18:54;;;;;;;15.30;11.35;;;;;;;11.45;38.03;100800.59;5066057;28;20036;-67
2021/04/09 07:21:20;;;;;;;11.88;8.93;;;;;;;12.08;37.13;100795.47;5083828;28;20416;-66
2021/04/09 07:23:45;;;;;;;15.02;11.48;;;;;;;12.98;35.74;100802.94;5069368;28;20082;-67
2021/04/09 07:26:10;;;;;;;11.52;10.25;;;;;;;12.91;36.09;100803.03;5069853;28;20032;-67
2021/04/09 07:28:35;;;;;;;9.75;8.48;;;;;;;12.87;35.94;100795.19;5069939;28;20029;-67
2021/04/09 07:31:01;;;;;;;10.00;7.88;;;;;;;12.15;37.12;100797.16;5069339;28;20066;-67
2021/04/09 07:33:27;;;;;;;10.48;8.95;;;;;;;12.84;36.39;100793.47;5067325;28;20150;-67
2021/04/09 07:35:54;;;;;;;13.70;9.07;;;;;;;13.18;36.08;100790.22;5066610;28;20039;-67
2021/04/09 07:38:25;;;;;;;12.07;9.80;;;;;;;13.63;35.74;100790.34;5068016;28;20073;-68
2021/04/09 07:41:00;;;;;;;;;;;;;;;14.50;34.23;100794.63;5069222;28;20086;-68
2021/04/09 07:43:34;;;;;;;9.75;8.75;;;;;;;13.94;34.55;100792.34;5048573;28;19908;-67
2021/04/09 07:46:02;;;;;;;9.75;7.60;;;;;;;14.04;33.92;100783.25;5049775;28;20106;-67
2021/04/09 07:48:38;;;;;;;11.32;8.93;;;;;;;14.32;33.66;100787.09;5064992;28;20028;-67
2021/04/09 07:51:05;;;;;;;14.80;9.45;;;;;;;14.42;33.84;100793.94;5068076;28;20038;-67
2021/04/09 07:53:30;;;;;;;9.48;7.57;;;;;;;13.93;34.74;100783.50;5067336;28;20097;-67
2021/04/09 07:56:07;;;;;;;9.73;8.73;;;;;;;14.62;33.41;100779.31;5069296;28;20028;-68
2021/04/09 07:58:33;;;;;;;12.27;8.07;;;;;;;15.33;32.59;100774.00;5067667;28;20023;-67
2021/04/09 08:00:59;;;;;;;13.18;7.50;;;;;;;16.53;31.16;100775.81;5069995;28;20127;-67
2021/04/09 08:03:42;;;;;;;10.10;7.85;;;;;;;16.49;30.56;100771.50;5092215;28;20424;-67
2021/04/09 08:06:20;;;;;;;9.00;7.57;;;;;;;17.08;28.67;100774.03;5067272;28;20542;-68
2021/04/09 08:08:46;;;;;;;8.70;7.80;;;;;;;17.00;29.32;100776.91;5067037;28;20031;-67
2021/04/09 08:11:22;;;;;;;11.47;7.93;;;;;;;16.62;30.23;100765.78;5083061;28;20027;-68
2021/04/09 08:14:10;;;;;;;8.50;7.60;;;;;;;17.63;28.69;100772.06;5087526;28;20036;-67
2021/04/09 08:16:43;;;;;;;8.73;7.38;;;;;;;16.98;29.21;100778.78;5082694;28;20032;-66
2021/04/09 08:19:16;;;;;;;10.63;7.40;;;;;;;18.56;27.26;100768.50;5068582;28;20107;-67
2021/04/09 08:21:44;;;;;;;10.82;7.97;;;;;;;17.77;28.16;100761.75;5053835;28;20803;-66
2021/04/09 08:24:10;;;;;;;11.77;7.60;;;;;;;17.87;28.41;100766.75;5068067;28;20395;-67
2021/04/09 08:26:39;;;;;;;9.70;7.25;;;;;;;17.54;28.27;100760.84;5067435;28;20111;-67
2021/04/09 08:29:07;;;;;;;9.30;8.13;;;;;;;17.49;28.16;100756.59;5066217;28;20094;-67
2021/04/09 08:31:33;;;;;;;10.18;8.43;;;;;;;16.69;30.31;100767.31;5073152;28;20060;-67
2021/04/09 08:33:58;;;;;;;10.35;7.53;;;;;;;17.18;28.67;100758.59;5070808;28;20024;-67
2021/04/09 08:36:25;;;;;;;10.27;7.05;;;;;;;17.77;28.13;100761.75;5070616;28;20028;-68
2021/04/09 08:38:51;;;;;;;8.20;7.40;;;;;;;18.31;28.30;100760.63;5071548;28;20365;-68
2021/04/09 08:41:17;;;;;;;11.43;7.53;;;;;;;18.23;27.42;100763.59;5070292;28;20086;-68
2021/04/09 08:43:44;;;;;;;7.57;6.80;;;;;;;17.45;28.51;100755.84;5071792;28;20021;-67
2021/04/09 08:46:09;;;;;;;8.80;7.90;;;;;;;17.07;28.34;100758.09;5071899;28;20111;-68
2021/04/09 08:48:37;;;;;;;9.20;7.75;;;;;;;16.42;30.13;100757.53;5071794;28;20105;-68
2021/04/09 08:51:04;;;;;;;12.23;8.15;;;;;;;16.62;29.68;100764.00;5053468;28;20035;-67
2021/04/09 08:53:31;;;;;;;9.95;8.30;;;;;;;17.24;28.76;100758.34;5070479;28;20056;-68
2021/04/09 08:55:56;;;;;;;10.40;8.23;;;;;;;17.63;28.40;100745.41;5069762;28;20032;-68
2021/04/09 08:58:22;;;;;;;15.93;8.18;;;;;;;19.18;26.81;100757.03;5070222;28;20040;-68
2021/04/09 09:00:49;;;;;;;10.07;7.55;;;;;;;18.38;28.21;100755.91;5070333;28;20020;-68
2021/04/09 09:03:28;;;;;;;8.23;7.35;;;;;;;18.71;27.29;100752.78;5070190;28;20448;-68
2021/04/09 09:06:01;;;;;;;12.27;7.80;;;;;;;18.87;26.71;100750.31;5071597;28;20036;-67
2021/04/09 09:08:41;;;;;;;10.52;7.53;;;;;;;17.93;28.56;100740.72;5071537;28;20040;-68
2021/04/09 09:11:06;;;;;;;8.93;8.03;;;;;;;18.69;27.70;100744.84;5071439;28;20051;-69
2021/04/09 09:13:43;;;;;;;9.68;7.20;;;;;;;19.47;26.71;100738.81;5070001;28;20483;-67
2021/04/09 09:16:19;;;;;;;8.48;7.30;;;;;;;19.47;26.77;100735.25;5070310;28;20029;-68
2021/04/09 09:18:48;;;;;;;14.30;7.68;;;;;;;19.29;26.74;100740.53;5071506;28;20492;-68
2021/04/09 09:21:13;;;;;;;8.93;8.05;;;;;;;19.42;26.46;100727.47;5071235;28;20391;-68
2021/04/09 09:23:44;;;;;;;10.27;8.97;;;;;;;19.40;27.36;100726.66;5071869;28;20013;-68
2021/04/09 09:26:43;;;;;;;9.68;8.18;;;;;;;19.18;28.30;100726.78;5070208;28;20024;-67
2021/04/09 09:29:08;;;;;;;10.57;8.20;;;;;;;19.33;27.49;100726.09;5059653;28;20071;-68
2021/04/09 09:31:35;;;;;;;10.07;8.03;;;;;;;18.52;28.84;100724.19;5072716;28;20024;-68
2021/04/09 09:34:32;;;;;;;12.80;8.50;;;;;;;17.04;30.72;100733.25;5071342;28;20107;-67
2021/04/09 09:37:19;;;;;;;9.63;8.68;;;;;;;16.60;31.60;100725.03;5068056;28;20067;-67
2021/04/09 09:39:52;;;;;;;12.88;8.82;;;;;;;18.23;29.26;100725.38;5070006;28;20024;-68
2021/04/09 09:42:27;;;;;;;12.35;8.82;;;;;;;18.23;28.86;100720.91;5069572;28;20036;-67
2021/04/09 09:44:56;;;;;;;9.95;8.30;;;;;;;18.58;28.67;100723.06;5071257;28;20435;-67
2021/04/09 09:47:31;;;;;;;9.30;8.07;;;;;;;17.85;29.46;100715.25;5055426;28;20403;-67
2021/04/09 09:50:07;;;;;;;9.60;7.95;;;;;;;18.95;28.21;100713.47;5051058;28;20025;-67
2021/04/09 09:52:53;;;;;;;8.43;7.43;;;;;;;17.66;29.15;100705.28;5050938;28;20029;-68
2021/04/09 09:55:34;;;;;;;9.82;7.93;;;;;;;17.52;29.49;100700.50;5050841;28;20374;-67
2021/04/09 09:58:05;;;;;;;11.18;7.82;;;;;;;17.71;29.71;100690.00;5060281;28;20035;-68
2021/04/09 10:00:31;;;;;;;11.13;8.50;;;;;;;18.01;30.05;100687.03;5052764;28;20035;-67
2021/04/09 10:03:16;;;;;;;10.32;8.23;;;;;;;17.61;30.26;100688.63;5069479;28;20020;-67
2021/04/09 10:05:44;;;;;;;8.52;7.53;;;;;;;18.53;28.83;100685.84;5069110;28;20028;-68
2021/04/09 10:08:10;;;;;;;9.18;8.13;;;;;;;19.38;27.35;100682.22;5070939;28;20085;-68
2021/04/09 10:10:43;;;;;;;9.77;7.32;;;;;;;20.43;26.09;100680.81;5074226;28;20033;-67
2021/04/09 10:13:36;;;;;;;9.02;8.13;;;;;;;20.37;26.12;100668.59;5073220;28;20024;-70
2021/04/09 10:16:21;;;;;;;9.32;7.63;;;;;;;18.80;27.56;100672.22;5073889;28;20091;-68
2021/04/09 10:18:51;;;;;;;9.73;8.10;;;;;;;18.84;27.91;100665.81;5073017;28;20036;-69
2021/04/09 10:21:18;;;;;;;10.05;8.02;;;;;;;18.67;27.95;100655.88;5074208;28;20020;-67
2021/04/09 10:23:46;;;;;;;8.77;7.90;;;;;;;19.46;28.71;100658.66;5073245;28;20017;-69
2021/04/09 10:26:12;;;;;;;9.63;7.55;;;;;;;19.25;28.25;100655.16;5074273;28;20111;-67
2021/04/09 10:28:38;;;;;;;8.50;7.47;;;;;;;19.34;29.00;100639.56;5072933;28;20025;-69
2021/04/09 10:31:07;;;;;;;10.27;9.10;;;;;;;19.17;28.30;100644.84;5073037;28;20461;-68
2021/04/09 10:33:37;;;;;;;13.13;8.60;;;;;;;20.70;27.89;100634.78;5072312;28;20024;-67
2021/04/09 10:36:24;;;;;;;13.90;10.02;;;;;;;21.86;24.06;100638.41;5073562;28;20016;-68
2021/04/09 10:38:55;;;;;;;12.20;9.05;;;;;;;22.36;24.13;100648.97;5074125;28;20031;-69
2021/04/09 10:41:30;;;;;;;;;;;;;;;23.23;25.00;100628.50;5073021;28;20031;-68
2021/04/09 10:44:07;;;;;;;10.60;9.35;;;;;;;24.33;22.86;100623.22;5072552;28;19912;-68
2021/04/09 10:46:35;;;;;;;10.57;9.52;;;;;;;24.30;22.84;100620.75;5072654;28;20028;-68
2021/04/09 10:49:04;;;;;;;12.18;10.23;;;;;;;24.36;21.82;100614.94;5073852;28;20031;-68
2021/04/09 10:51:30;;;;;;;11.70;10.25;;;;;;;23.49;23.31;100610.75;5089356;28;20031;-68
2021/04/09 10:53:56;;;;;;;11.52;9.57;;;;;;;22.71;23.33;100609.31;5072357;28;20035;-68
2021/04/09 10:56:21;;;;;;;10.00;9.00;;;;;;;23.04;23.38;100606.34;5073791;28;20028;-68
2021/04/09 10:58:47;;;;;;;12.15;10.93;;;;;;;23.02;23.72;100607.41;5072469;28;20056;-67
2021/04/09 11:01:13;;;;;;;14.68;12.38;;;;;;;22.58;23.45;100606.53;5087401;28;20036;-68
2021/04/09 11:03:38;;;;;;;12.18;11.02;;;;;;;22.10;23.30;100604.81;5073397;28;20021;-68
2021/04/09 11:06:04;;;;;;;12.60;10.90;;;;;;;21.62;24.00;100600.38;5073569;28;20028;-69
2021/04/09 11:08:34;;;;;;;12.88;11.57;;;;;;;21.37;24.18;100607.09;5071944;28;20023;-68
2021/04/09 11:11:10;;;;;;;13.57;11.43;;;;;;;22.95;23.28;100601.56;5068296;28;20030;-69
2021/04/09 11:13:37;;;;;;;13.18;11.40;;;;;;;21.81;24.10;100610.97;5068549;28;20635;-68
2021/04/09 11:16:03;;;;;;;12.80;11.52;;;;;;;20.82;24.93;100591.28;5070281;28;20482;-67
2021/04/09 11:18:52;;;;;;;12.60;11.15;;;;;;;21.40;24.43;100602.47;5068131;28;20125;-69
2021/04/09 11:21:43;;;;;;;12.15;10.95;;;;;;;19.95;26.13;100593.00;5068260;28;20332;-68
2021/04/09 11:24:10;;;;;;;11.93;10.75;;;;;;;21.13;25.34;100589.63;5067926;28;20531;-68
2021/04/09 11:26:36;;;;;;;11.55;10.35;;;;;;;21.02;25.26;100586.69;5069810;28;20032;-69